Time;durP1;ratioP1;P1;durP2;ratioP2;P2;SDS_P1;SDS_P2;PMS_P1;PMS_P2;Temp;Humidity;BMP_temperature;BMP_pressure;BME280_temperature;BME280_humidity;BME280_pressure;Samples;Min_cycle;Max_cycle;Signal;HPM_P1;HPM_P2
2022/01/17 00:02:25;;;;;;;9.82;6.30;;;;;;;;;;5002766;28;20175;-57
2022/01/17 00:04:50;;;;;;;11.13;6.25;;;;;;;;;;5004663;28;20193;-57
2022/01/17 00:07:16;;;;;;;10.25;6.90;;;;;;;;;;5008582;28;20182;-57
2022/01/17 00:09:41;;;;;;;7.82;5.78;;;;;;;;;;5007725;28;20213;-57
2022/01/17 00:12:07;;;;;;;5.57;4.65;;;;;;;;;;5011377;28;20179;-57
2022/01/17 00:14:39;;;;;;;8.73;5.32;;;;;;;;;;5005851;28;20172;-57
2022/01/17 00:19:44;;;;;;;4.38;3.17;;;;;;;;;;5004752;28;20308;-57
2022/01/17 00:22:10;;;;;;;2.95;2.75;;;;;;;;;;4988892;28;20225;-57
2022/01/17 00:24:36;;;;;;;3.10;2.83;;;;;;;;;;5002954;28;20171;-57
2022/01/17 00:27:01;;;;;;;3.13;2.83;;;;;;;;;;5006124;28;20182;-57
2022/01/17 00:29:27;;;;;;;2.80;2.60;;;;;;;;;;5004943;28;20683;-57
2022/01/17 00:31:52;;;;;;;3.03;2.53;;;;;;;;;;4999078;28;20245;-57
2022/01/17 00:34:17;;;;;;;3.00;2.72;;;;;;;;;;4995767;28;20564;-57
2022/01/17 00:36:42;;;;;;;2.70;2.50;;;;;;;;;;4996780;28;20217;-57
2022/01/17 00:39:08;;;;;;;2.60;2.40;;;;;;;;;;4997143;28;20265;-57
2022/01/17 00:41:33;;;;;;;3.00;2.33;;;;;;;;;;5009250;28;20224;-57
2022/01/17 00:43:58;;;;;;;3.08;2.63;;;;;;;;;;5001727;28;20305;-57
2022/01/17 00:46:24;;;;;;;2.78;2.53;;;;;;;;;;5002201;28;20179;-57
2022/01/17 00:48:51;;;;;;;2.88;2.30;;;;;;;;;;5005304;28;20187;-57
2022/01/17 00:51:16;;;;;;;2.65;2.45;;;;;;;;;;5012021;28;20213;-56
2022/01/17 00:53:42;;;;;;;3.83;3.00;;;;;;;;;;4998104;28;21024;-56
2022/01/17 00:56:07;;;;;;;2.90;2.60;;;;;;;;;;4999504;28;20183;-57
2022/01/17 00:58:33;;;;;;;3.17;2.85;;;;;;;;;;5006118;28;20214;-56
2022/01/17 01:00:58;;;;;;;3.30;3.00;;;;;;;;;;5003363;28;20273;-56
2022/01/17 01:03:23;;;;;;;3.08;2.78;;;;;;;;;;5004242;28;20183;-56
2022/01/17 01:05:49;;;;;;;3.28;2.88;;;;;;;;;;4999513;28;20182;-56
2022/01/17 01:08:14;;;;;;;3.33;3.03;;;;;;;;;;5000729;28;20484;-56
2022/01/17 01:10:39;;;;;;;12.10;6.80;;;;;;;;;;5003857;28;20641;-58
2022/01/17 01:13:05;;;;;;;15.77;7.57;;;;;;;;;;5009178;28;20183;-57
2022/01/17 01:15:47;;;;;;;11.23;6.32;;;;;;;;;;4994155;28;20239;-57
2022/01/17 01:18:36;;;;;;;9.77;6.13;;;;;;;;;;5005168;28;20596;-57
2022/01/17 01:29:15;;;;;;;4.18;3.58;;;;;;;;;;5000590;28;20218;-56
2022/01/17 01:31:46;;;;;;;4.75;3.42;;;;;;;;;;5002249;28;20641;-58
2022/01/17 01:34:13;;;;;;;5.25;3.97;;;;;;;;;;5003575;28;20568;-57
2022/01/17 01:36:39;;;;;;;5.80;4.20;;;;;;;;;;4989706;28;20211;-57
2022/01/17 01:39:05;;;;;;;13.00;6.32;;;;;;;;;;4998656;28;20179;-57
2022/01/17 01:41:36;;;;;;;9.35;6.28;;;;;;;;;;4992749;28;20179;-59
2022/01/17 01:44:03;;;;;;;8.07;6.45;;;;;;;;;;5005849;28;20180;-57
2022/01/17 01:46:28;;;;;;;11.02;6.57;;;;;;;;;;4997688;28;20179;-56
2022/01/17 01:48:53;;;;;;;9.73;6.80;;;;;;;;;;4999078;28;20202;-58
2022/01/17 01:51:20;;;;;;;11.35;7.45;;;;;;;;;;4998315;28;20234;-56
2022/01/17 01:53:45;;;;;;;16.25;9.00;;;;;;;;;;4997450;28;20208;-57
2022/01/17 01:56:10;;;;;;;14.27;10.27;;;;;;;;;;5000456;28;20233;-56
2022/01/17 01:58:35;;;;;;;13.52;7.93;;;;;;;;;;5001019;28;20194;-57
2022/01/17 02:01:01;;;;;;;11.23;7.45;;;;;;;;;;5002016;28;20594;-57
2022/01/17 02:03:26;;;;;;;13.23;7.47;;;;;;;;;;5005108;28;20216;-57
2022/01/17 02:05:54;;;;;;;10.70;7.93;;;;;;;;;;5004347;28;20649;-58
2022/01/17 02:08:19;;;;;;;12.32;8.02;;;;;;;;;;4997508;28;20187;-57
2022/01/17 02:10:44;;;;;;;10.70;8.05;;;;;;;;;;4999330;28;20189;-57
2022/01/17 02:13:10;;;;;;;11.32;7.97;;;;;;;;;;4998311;28;20256;-57
2022/01/17 02:15:37;;;;;;;11.50;8.38;;;;;;;;;;4993876;28;20262;-57
2022/01/17 02:18:03;;;;;;;10.95;7.40;;;;;;;;;;4997127;28;20203;-57
2022/01/17 02:23:20;;;;;;;12.55;7.82;;;;;;;;;;5005026;28;20195;-57
2022/01/17 02:25:46;;;;;;;7.55;6.45;;;;;;;;;;5002254;28;20183;-57
2022/01/17 02:28:11;;;;;;;7.22;6.13;;;;;;;;;;4981716;28;20763;-57
2022/01/17 02:30:36;;;;;;;11.63;7.32;;;;;;;;;;4997603;28;20186;-57
2022/01/17 02:33:02;;;;;;;11.15;6.55;;;;;;;;;;4999445;28;20266;-57
2022/01/17 02:35:27;;;;;;;11.02;6.97;;;;;;;;;;4999725;28;20186;-57
2022/01/17 02:37:53;;;;;;;11.55;6.90;;;;;;;;;;4996150;28;20222;-57
2022/01/17 02:40:19;;;;;;;10.45;7.43;;;;;;;;;;5001701;28;20188;-57
2022/01/17 02:42:47;;;;;;;14.85;7.78;;;;;;;;;;5002493;28;20191;-57
2022/01/17 02:45:30;;;;;;;13.18;8.35;;;;;;;;;;4998429;28;20666;-57
2022/01/17 02:47:56;;;;;;;14.00;9.20;;;;;;;;;;4998934;28;20190;-57
2022/01/17 02:50:22;;;;;;;11.75;8.30;;;;;;;;;;4976720;28;20191;-58
2022/01/17 02:52:47;;;;;;;13.57;8.65;;;;;;;;;;4979292;28;20285;-58
2022/01/17 02:55:12;;;;;;;11.25;8.23;;;;;;;;;;4989379;28;20249;-57
2022/01/17 02:57:37;;;;;;;9.35;7.18;;;;;;;;;;4995648;28;20199;-57
2022/01/17 03:00:04;;;;;;;9.98;7.47;;;;;;;;;;4992363;28;20302;-57
2022/01/17 03:02:29;;;;;;;12.60;7.93;;;;;;;;;;5000763;28;20191;-57
2022/01/17 03:04:54;;;;;;;12.90;7.88;;;;;;;;;;4994120;28;20175;-57
2022/01/17 03:07:20;;;;;;;12.52;7.78;;;;;;;;;;5003490;28;20591;-57
2022/01/17 03:10:01;;;;;;;12.07;8.07;;;;;;;;;;5000784;28;20205;-57
2022/01/17 03:12:26;;;;;;;13.20;8.57;;;;;;;;;;4997231;28;20210;-57
2022/01/17 03:14:51;;;;;;;17.13;9.60;;;;;;;;;;4999803;28;20314;-57
2022/01/17 03:17:16;;;;;;;21.83;12.77;;;;;;;;;;4990907;28;20203;-57
2022/01/17 03:19:42;;;;;;;24.02;12.40;;;;;;;;;;5003992;28;20167;-57
2022/01/17 03:22:07;;;;;;;23.83;11.30;;;;;;;;;;5005929;28;20612;-57
2022/01/17 03:24:32;;;;;;;23.42;10.88;;;;;;;;;;4994229;28;20203;-57
2022/01/17 03:26:57;;;;;;;23.00;10.57;;;;;;;;;;5001238;28;20774;-57
2022/01/17 03:29:23;;;;;;;31.02;12.65;;;;;;;;;;4999167;28;20194;-57
2022/01/17 03:31:48;;;;;;;25.50;12.65;;;;;;;;;;4979992;28;20187;-57
2022/01/17 03:34:13;;;;;;;22.63;9.57;;;;;;;;;;4978049;28;20183;-57
2022/01/17 03:36:40;;;;;;;16.60;9.88;;;;;;;;;;4982875;28;20215;-57
2022/01/17 03:39:06;;;;;;;14.98;8.52;;;;;;;;;;4993252;28;20234;-57
2022/01/17 03:41:31;;;;;;;8.68;6.85;;;;;;;;;;4997569;28;20203;-58
2022/01/17 03:43:56;;;;;;;10.00;6.60;;;;;;;;;;4991283;28;20190;-58
2022/01/17 03:46:21;;;;;;;13.07;7.43;;;;;;;;;;4993257;28;20184;-57
2022/01/17 03:48:47;;;;;;;12.30;7.40;;;;;;;;;;4989131;28;20997;-57
2022/01/17 03:51:12;;;;;;;8.98;6.88;;;;;;;;;;4990614;28;20201;-57
2022/01/17 03:53:37;;;;;;;9.45;6.90;;;;;;;;;;4976166;28;20211;-57
2022/01/17 03:56:03;;;;;;;12.82;7.18;;;;;;;;;;4978087;28;20184;-58
2022/01/17 03:58:28;;;;;;;11.75;6.78;;;;;;;;;;4988618;28;20704;-58
2022/01/17 04:00:55;;;;;;;11.15;7.07;;;;;;;;;;4999705;28;20195;-58
2022/01/17 04:03:20;;;;;;;11.32;6.85;;;;;;;;;;5003003;28;20187;-57
2022/01/17 04:05:45;;;;;;;10.30;7.03;;;;;;;;;;5002229;28;20257;-57
2022/01/17 04:08:12;;;;;;;10.20;6.97;;;;;;;;;;4997214;28;20578;-58
2022/01/17 04:10:37;;;;;;;8.07;6.22;;;;;;;;;;4995904;28;20192;-58
2022/01/17 04:13:04;;;;;;;8.93;5.97;;;;;;;;;;5000268;28;20206;-58
2022/01/17 04:15:33;;;;;;;9.15;7.05;;;;;;;;;;4996848;28;20194;-58
2022/01/17 04:18:01;;;;;;;11.85;6.30;;;;;;;;;;4997957;28;20288;-57
2022/01/17 04:20:28;;;;;;;9.82;6.25;;;;;;;;;;4995818;28;20219;-57
2022/01/17 04:22:58;;;;;;;8.10;6.20;;;;;;;;;;4995995;28;21011;-58
2022/01/17 04:25:25;;;;;;;5.78;4.38;;;;;;;;;;5002568;28;20236;-57
2022/01/17 04:27:50;;;;;;;6.68;4.93;;;;;;;;;;4998250;28;20301;-58
2022/01/17 04:30:16;;;;;;;4.97;4.47;;;;;;;;;;4999446;28;20271;-58
2022/01/17 04:32:43;;;;;;;4.15;3.60;;;;;;;;;;4999489;28;20648;-58
2022/01/17 04:35:09;;;;;;;6.32;4.80;;;;;;;;;;4997015;28;20276;-57
2022/01/17 04:37:34;;;;;;;6.18;4.32;;;;;;;;;;4998062;28;20206;-56
2022/01/17 04:40:00;;;;;;;5.10;3.63;;;;;;;;;;5003134;28;20179;-56
2022/01/17 04:42:28;;;;;;;4.78;3.92;;;;;;;;;;4999784;28;20640;-56
2022/01/17 04:45:10;;;;;;;5.85;5.20;;;;;;;;;;5000077;28;20171;-57
2022/01/17 04:47:36;;;;;;;7.75;5.72;;;;;;;;;;4997982;28;20218;-57
2022/01/17 04:50:03;;;;;;;9.05;5.13;;;;;;;;;;4998664;28;20822;-57
2022/01/17 04:52:28;;;;;;;6.90;5.43;;;;;;;;;;4995282;28;20199;-56
2022/01/17 04:54:55;;;;;;;11.60;7.28;;;;;;;;;;4989350;28;20203;-56
2022/01/17 04:57:21;;;;;;;11.32;7.47;;;;;;;;;;4999002;28;20775;-56
2022/01/17 04:59:47;;;;;;;16.52;6.78;;;;;;;;;;5000922;28;20186;-56
2022/01/17 05:02:12;;;;;;;11.13;6.47;;;;;;;;;;5003522;28;20201;-55
2022/01/17 05:04:37;;;;;;;10.05;7.25;;;;;;;;;;5004622;28;20214;-56
2022/01/17 05:07:05;;;;;;;10.68;7.07;;;;;;;;;;5002062;28;20191;-56
2022/01/17 05:09:30;;;;;;;9.27;6.45;;;;;;;;;;4998642;28;20187;-58
2022/01/17 05:11:56;;;;;;;9.88;7.22;;;;;;;;;;5001351;28;20624;-58
2022/01/17 05:14:21;;;;;;;10.52;7.25;;;;;;;;;;4993109;28;20238;-58
2022/01/17 05:16:51;;;;;;;12.77;8.13;;;;;;;;;;4983732;28;20385;-57
2022/01/17 05:22:00;;;;;;;6.00;5.40;;;;;;;;;;5005016;28;20585;-57
2022/01/17 05:24:25;;;;;;;7.50;5.93;;;;;;;;;;5003203;28;20187;-58
2022/01/17 05:26:51;;;;;;;6.65;4.88;;;;;;;;;;5000645;28;20183;-56
2022/01/17 05:29:16;;;;;;;7.30;5.30;;;;;;;;;;5002315;28;20175;-57
2022/01/17 05:31:41;;;;;;;9.70;5.97;;;;;;;;;;5002795;28;20175;-57
2022/01/17 05:34:07;;;;;;;8.10;5.78;;;;;;;;;;5000421;28;20607;-57
2022/01/17 05:36:32;;;;;;;10.68;6.53;;;;;;;;;;5003740;28;20182;-57
2022/01/17 05:38:57;;;;;;;11.73;9.32;;;;;;;;;;4998176;28;20268;-56
2022/01/17 05:41:22;;;;;;;10.57;8.27;;;;;;;;;;4999926;28;20210;-56
2022/01/17 05:43:48;;;;;;;9.65;6.10;;;;;;;;;;5002641;28;20250;-57
2022/01/17 05:46:13;;;;;;;10.10;6.82;;;;;;;;;;4999234;28;20574;-57
2022/01/17 05:48:38;;;;;;;11.43;7.50;;;;;;;;;;4994192;28;20633;-57
2022/01/17 05:51:04;;;;;;;10.43;7.50;;;;;;;;;;4991686;28;20187;-57
2022/01/17 05:53:30;;;;;;;12.15;7.40;;;;;;;;;;4997266;28;20844;-56
2022/01/17 05:55:56;;;;;;;12.07;10.07;;;;;;;;;;4997611;28;20649;-56
2022/01/17 05:58:21;;;;;;;16.50;7.57;;;;;;;;;;5001507;28;20331;-57
2022/01/17 06:00:46;;;;;;;8.98;7.07;;;;;;;;;;4998808;28;20922;-57
2022/01/17 06:03:12;;;;;;;9.55;5.35;;;;;;;;;;4999720;28;20183;-57
2022/01/17 06:05:37;;;;;;;10.32;6.68;;;;;;;;;;4996776;28;20188;-57
2022/01/17 06:08:02;;;;;;;35.05;15.63;;;;;;;;;;4989932;28;20180;-57
2022/01/17 06:10:28;;;;;;;76.25;31.42;;;;;;;;;;4999104;28;20840;-57
2022/01/17 06:12:53;;;;;;;44.65;21.20;;;;;;;;;;5001859;28;20231;-57
2022/01/17 06:15:18;;;;;;;33.47;16.15;;;;;;;;;;4994773;28;20195;-57
2022/01/17 06:17:44;;;;;;;20.63;11.20;;;;;;;;;;4997207;28;20294;-57
2022/01/17 06:20:10;;;;;;;24.10;14.90;;;;;;;;;;4997399;28;20179;-57
2022/01/17 06:22:35;;;;;;;25.23;13.63;;;;;;;;;;4998361;28;21108;-57
2022/01/17 06:25:00;;;;;;;17.33;10.90;;;;;;;;;;4998502;28;20208;-57
2022/01/17 06:27:26;;;;;;;18.63;11.43;;;;;;;;;;4994110;28;20772;-57
2022/01/17 06:29:52;;;;;;;18.92;11.90;;;;;;;;;;4988897;28;20187;-57
2022/01/17 06:32:17;;;;;;;30.42;18.35;;;;;;;;;;4999004;28;20691;-58
2022/01/17 06:34:42;;;;;;;30.42;16.80;;;;;;;;;;4999460;28;20180;-58
2022/01/17 06:37:08;;;;;;;45.40;22.92;;;;;;;;;;4997162;28;20610;-57
2022/01/17 06:39:33;;;;;;;41.65;23.30;;;;;;;;;;5004190;28;20171;-58
2022/01/17 06:41:59;;;;;;;33.20;19.80;;;;;;;;;;4997389;28;20817;-58
2022/01/17 06:44:24;;;;;;;34.63;21.08;;;;;;;;;;4998913;28;21312;-58
2022/01/17 06:46:49;;;;;;;29.58;18.95;;;;;;;;;;4995098;28;20270;-59
2022/01/17 06:49:14;;;;;;;32.75;19.38;;;;;;;;;;5004732;28;20230;-57
2022/01/17 06:51:40;;;;;;;23.85;14.65;;;;;;;;;;4993236;28;20187;-57
2022/01/17 06:54:05;;;;;;;27.33;17.70;;;;;;;;;;5000457;28;20584;-57
2022/01/17 06:56:31;;;;;;;45.38;25.38;;;;;;;;;;4991404;28;20182;-57
2022/01/17 06:58:56;;;;;;;30.75;20.17;;;;;;;;;;4992145;28;20646;-57
2022/01/17 07:01:21;;;;;;;7.35;5.40;;;;;;;;;;5000990;28;20260;-58
2022/01/17 07:03:47;;;;;;;3.95;3.55;;;;;;;;;;4997241;28;20679;-56
2022/01/17 07:06:12;;;;;;;4.07;2.80;;;;;;;;;;4999368;28;20211;-57
2022/01/17 07:08:38;;;;;;;3.33;2.65;;;;;;;;;;5003875;28;20180;-57
2022/01/17 07:11:04;;;;;;;5.35;3.60;;;;;;;;;;5006119;28;20274;-58
2022/01/17 07:13:29;;;;;;;8.05;4.75;;;;;;;;;;4998132;28;20681;-57
2022/01/17 07:15:54;;;;;;;6.95;3.92;;;;;;;;;;4996708;28;20607;-57
2022/01/17 07:18:20;;;;;;;15.90;10.55;;;;;;;;;;5005358;28;20202;-57
2022/01/17 07:20:45;;;;;;;13.52;7.38;;;;;;;;;;4998340;28;20171;-57
2022/01/17 07:23:10;;;;;;;11.30;6.60;;;;;;;;;;4998420;28;20254;-57
2022/01/17 07:25:38;;;;;;;46.90;26.08;;;;;;;;;;4997470;28;20240;-57
2022/01/17 07:28:04;;;;;;;61.28;32.85;;;;;;;;;;5001967;28;20337;-58
2022/01/17 07:30:30;;;;;;;56.90;29.20;;;;;;;;;;4999253;28;20246;-57
2022/01/17 07:32:55;;;;;;;63.60;32.53;;;;;;;;;;4995229;28;20553;-58
2022/01/17 07:35:21;;;;;;;56.00;31.30;;;;;;;;;;5000131;28;20218;-57
2022/01/17 07:37:46;;;;;;;49.72;26.83;;;;;;;;;;4993359;28;20378;-57
2022/01/17 07:40:11;;;;;;;51.05;27.35;;;;;;;;;;5001594;28;20277;-58
2022/01/17 07:42:37;;;;;;;49.72;27.15;;;;;;;;;;5001819;28;20564;-58
2022/01/17 07:45:10;;;;;;;52.22;28.77;;;;;;;;;;4995178;28;20269;-57
2022/01/17 07:47:42;;;;;;;44.53;26.48;;;;;;;;;;4997835;28;20265;-58
2022/01/17 07:50:11;;;;;;;22.98;13.70;;;;;;;;;;4999424;28;20203;-58
2022/01/17 07:52:36;;;;;;;13.80;8.27;;;;;;;;;;4998446;28;20180;-58
2022/01/17 07:55:03;;;;;;;6.53;5.78;;;;;;;;;;4995094;28;20195;-58
2022/01/17 07:57:31;;;;;;;19.00;7.38;;;;;;;;;;5001937;28;20203;-58
2022/01/17 07:59:57;;;;;;;8.80;6.60;;;;;;;;;;5002526;28;20288;-58
2022/01/17 08:02:28;;;;;;;31.60;16.02;;;;;;;;;;4997525;28;20616;-58
2022/01/17 08:05:03;;;;;;;34.10;20.00;;;;;;;;;;4983515;28;20289;-58
2022/01/17 08:07:28;;;;;;;38.60;21.77;;;;;;;;;;4996300;28;20317;-58
2022/01/17 08:09:54;;;;;;;44.47;25.60;;;;;;;;;;4997824;28;20183;-57
2022/01/17 08:12:19;;;;;;;18.77;11.75;;;;;;;;;;5002669;28;20630;-58
2022/01/17 08:14:44;;;;;;;19.10;10.73;;;;;;;;;;5000661;28;20190;-58
2022/01/17 08:17:11;;;;;;;22.83;13.65;;;;;;;;;;4998428;28;20744;-58
2022/01/17 08:19:36;;;;;;;23.48;14.85;;;;;;;;;;4995986;28;20596;-58
2022/01/17 08:22:03;;;;;;;33.00;17.90;;;;;;;;;;5007569;28;20182;-58
2022/01/17 08:24:28;;;;;;;30.23;17.33;;;;;;;;;;5001157;28;20237;-58
2022/01/17 08:26:53;;;;;;;36.65;22.45;;;;;;;;;;4979926;28;20981;-58
2022/01/17 08:29:20;;;;;;;42.00;23.88;;;;;;;;;;4981456;28;20175;-58
2022/01/17 08:31:47;;;;;;;33.38;19.13;;;;;;;;;;4991726;28;20179;-58
2022/01/17 08:34:17;;;;;;;35.03;20.58;;;;;;;;;;5010757;28;20271;-58
2022/01/17 08:36:42;;;;;;;34.92;18.40;;;;;;;;;;5010362;28;20687;-58
2022/01/17 08:39:09;;;;;;;31.52;20.05;;;;;;;;;;4998377;28;20175;-58
2022/01/17 08:41:34;;;;;;;21.05;14.88;;;;;;;;;;5006241;28;20176;-58
2022/01/17 08:44:00;;;;;;;14.18;8.93;;;;;;;;;;4993793;28;20202;-58
2022/01/17 08:46:31;;;;;;;14.52;8.88;;;;;;;;;;5004739;28;20762;-58
2022/01/17 08:48:56;;;;;;;14.32;9.30;;;;;;;;;;4999194;28;20183;-58
2022/01/17 08:51:21;;;;;;;15.02;8.55;;;;;;;;;;5001568;28;20167;-58
2022/01/17 08:53:49;;;;;;;16.73;10.00;;;;;;;;;;4999545;28;20198;-57
2022/01/17 08:56:15;;;;;;;15.30;9.65;;;;;;;;;;5002807;28;20648;-58
2022/01/17 08:58:40;;;;;;;11.20;7.50;;;;;;;;;;5001460;28;20191;-56
2022/01/17 09:01:05;;;;;;;9.27;6.28;;;;;;;;;;4998807;28;20175;-56
2022/01/17 09:03:31;;;;;;;6.78;4.93;;;;;;;;;;4998775;28;20187;-57
2022/01/17 09:05:56;;;;;;;7.15;4.47;;;;;;;;;;5006747;28;20194;-57
2022/01/17 09:08:22;;;;;;;6.38;4.32;;;;;;;;;;5001335;28;20892;-57
2022/01/17 09:10:49;;;;;;;15.23;4.68;;;;;;;;;;4999395;28;20207;-59
2022/01/17 09:13:14;;;;;;;6.35;4.28;;;;;;;;;;5004243;28;20179;-57
2022/01/17 09:15:40;;;;;;;4.30;3.58;;;;;;;;;;5009146;28;20676;-57
2022/01/17 09:18:06;;;;;;;6.75;4.32;;;;;;;;;;4998663;28;20236;-57
2022/01/17 09:20:34;;;;;;;4.55;3.53;;;;;;;;;;5001008;28;20182;-57
2022/01/17 09:23:00;;;;;;;8.43;4.53;;;;;;;;;;5000315;28;20182;-57
2022/01/17 09:25:25;;;;;;;10.10;5.00;;;;;;;;;;4999112;28;20183;-57
2022/01/17 09:27:50;;;;;;;5.60;4.25;;;;;;;;;;4998930;28;20701;-57
2022/01/17 09:30:15;;;;;;;6.60;3.80;;;;;;;;;;4978828;28;20183;-57
2022/01/17 09:32:43;;;;;;;4.97;3.65;;;;;;;;;;4980797;28;20186;-57
2022/01/17 09:35:11;;;;;;;6.47;3.60;;;;;;;;;;4998205;28;20687;-57
2022/01/17 09:37:36;;;;;;;7.95;5.25;;;;;;;;;;5003750;28;20680;-57
2022/01/17 09:40:02;;;;;;;7.93;4.90;;;;;;;;;;5001791;28;20273;-57
2022/01/17 09:42:28;;;;;;;8.70;5.20;;;;;;;;;;5001079;28;20171;-58
2022/01/17 09:44:54;;;;;;;8.43;4.95;;;;;;;;;;4997229;28;20184;-57
2022/01/17 09:47:19;;;;;;;11.63;5.70;;;;;;;;;;4998070;28;20191;-57
2022/01/17 09:49:54;;;;;;;12.13;5.60;;;;;;;;;;4992322;28;20238;-58
2022/01/17 09:52:36;;;;;;;7.88;4.38;;;;;;;;;;4998259;28;20175;-58
2022/01/17 09:55:06;;;;;;;6.47;4.53;;;;;;;;;;5002561;28;20262;-58
2022/01/17 09:57:37;;;;;;;5.55;4.22;;;;;;;;;;5001882;28;20195;-58
2022/01/17 10:00:03;;;;;;;6.20;4.40;;;;;;;;;;4993051;28;20202;-57
2022/01/17 10:02:28;;;;;;;4.22;3.65;;;;;;;;;;5004844;28;20656;-58
2022/01/17 10:05:01;;;;;;;8.63;5.18;;;;;;;;;;5002816;28;20649;-58
2022/01/17 10:07:46;;;;;;;4.85;4.35;;;;;;;;;;5009132;28;20222;-58
2022/01/17 10:10:12;;;;;;;7.25;4.05;;;;;;;;;;4999495;28;20218;-58
2022/01/17 10:12:38;;;;;;;5.75;4.55;;;;;;;;;;4997562;28;20241;-58
2022/01/17 10:15:07;;;;;;;5.25;3.72;;;;;;;;;;4999661;28;20193;-58
2022/01/17 10:17:56;;;;;;;4.88;3.30;;;;;;;;;;5005000;28;20264;-57
2022/01/17 10:20:21;;;;;;;10.60;4.20;;;;;;;;;;4997998;28;20168;-58
2022/01/17 10:22:56;;;;;;;5.75;4.60;;;;;;;;;;4996275;28;20180;-58
2022/01/17 10:28:21;;;;;;;6.57;4.60;;;;;;;;;;5002883;28;20668;-58
2022/01/17 10:35:59;;;;;;;8.68;5.30;;;;;;;;;;4999357;28;20186;-57
2022/01/17 10:38:27;;;;;;;6.07;4.70;;;;;;;;;;5003096;28;20234;-58
2022/01/17 10:40:56;;;;;;;9.95;5.50;;;;;;;;;;5023223;28;20573;-58
2022/01/17 10:43:33;;;;;;;6.47;5.55;;;;;;;;;;5002691;28;20190;-57
2022/01/17 10:46:01;;;;;;;6.43;4.88;;;;;;;;;;4990603;28;20552;-57
2022/01/17 10:48:30;;;;;;;8.95;5.03;;;;;;;;;;4991936;28;20180;-57
2022/01/17 10:50:55;;;;;;;8.10;4.93;;;;;;;;;;5000267;28;20195;-57
2022/01/17 10:53:21;;;;;;;7.75;5.75;;;;;;;;;;4999328;28;20214;-57
2022/01/17 10:55:50;;;;;;;9.50;5.97;;;;;;;;;;4997950;28;20242;-57
2022/01/17 10:58:20;;;;;;;9.32;5.00;;;;;;;;;;5000611;28;20206;-57
2022/01/17 11:00:46;;;;;;;9.10;5.50;;;;;;;;;;5004024;28;20233;-57
2022/01/17 11:03:16;;;;;;;4.72;4.00;;;;;;;;;;4997178;28;20235;-57
2022/01/17 11:05:43;;;;;;;8.38;5.03;;;;;;;;;;4996942;28;20180;-56
2022/01/17 11:08:09;;;;;;;10.20;6.00;;;;;;;;;;4998470;28;20210;-57
2022/01/17 11:10:36;;;;;;;6.93;5.78;;;;;;;;;;5002481;28;20186;-57
2022/01/17 11:13:03;;;;;;;7.07;6.00;;;;;;;;;;5001745;28;20175;-56
2022/01/17 11:15:29;;;;;;;7.00;4.70;;;;;;;;;;4996726;28;20788;-57
2022/01/17 11:17:57;;;;;;;6.43;4.85;;;;;;;;;;4998271;28;20210;-56
2022/01/17 11:20:24;;;;;;;6.57;4.93;;;;;;;;;;4998589;28;20225;-57
2022/01/17 11:22:54;;;;;;;8.32;5.82;;;;;;;;;;5002726;28;20191;-57
2022/01/17 11:25:21;;;;;;;7.03;4.60;;;;;;;;;;4998547;28;20191;-57
2022/01/17 11:27:47;;;;;;;9.10;5.15;;;;;;;;;;4993513;28;20314;-57
2022/01/17 11:30:12;;;;;;;4.60;3.97;;;;;;;;;;4996748;28;21080;-57
2022/01/17 11:32:38;;;;;;;7.13;4.47;;;;;;;;;;4997644;28;20190;-57
2022/01/17 11:35:04;;;;;;;6.80;4.57;;;;;;;;;;4999652;28;20883;-57
2022/01/17 11:37:34;;;;;;;5.70;4.00;;;;;;;;;;4997390;28;20202;-57
2022/01/17 11:40:02;;;;;;;10.23;4.95;;;;;;;;;;5000532;28;20190;-58
2022/01/17 11:42:44;;;;;;;6.93;3.95;;;;;;;;;;4995980;28;20233;-57
2022/01/17 11:45:21;;;;;;;6.50;4.15;;;;;;;;;;4990299;28;20685;-57
2022/01/17 11:47:57;;;;;;;3.45;3.15;;;;;;;;;;4999032;28;20179;-57
2022/01/17 11:50:32;;;;;;;8.05;4.22;;;;;;;;;;4999320;28;20205;-57
2022/01/17 11:53:00;;;;;;;8.93;6.63;;;;;;;;;;4990168;28;20294;-58
2022/01/17 11:55:43;;;;;;;7.22;5.55;;;;;;;;;;4998907;28;20918;-58
2022/01/17 11:58:30;;;;;;;7.40;4.63;;;;;;;;;;4996724;28;20218;-57
2022/01/17 12:01:01;;;;;;;4.65;3.22;;;;;;;;;;4998907;28;20544;-58
2022/01/17 12:03:28;;;;;;;6.60;4.32;;;;;;;;;;4995045;28;20656;-58
2022/01/17 12:05:54;;;;;;;7.15;4.30;;;;;;;;;;4993444;28;20171;-58
2022/01/17 12:08:20;;;;;;;4.38;3.35;;;;;;;;;;4999464;28;20191;-58
2022/01/17 12:10:58;;;;;;;4.22;3.28;;;;;;;;;;5004924;28;20190;-58
2022/01/17 12:13:34;;;;;;;4.55;4.15;;;;;;;;;;4996186;28;20245;-57
2022/01/17 12:16:18;;;;;;;12.25;3.80;;;;;;;;;;5001688;28;20182;-58
2022/01/17 12:18:46;;;;;;;7.45;4.05;;;;;;;;;;4996012;28;20827;-57
2022/01/17 12:21:32;;;;;;;6.28;4.18;;;;;;;;;;4997994;28;21062;-57
2022/01/17 12:24:16;;;;;;;8.88;3.67;;;;;;;;;;5003604;28;20175;-57
2022/01/17 12:27:02;;;;;;;6.93;3.22;;;;;;;;;;4990057;28;20183;-57
2022/01/17 12:29:52;;;;;;;5.88;3.70;;;;;;;;;;4998470;28;20179;-57
2022/01/17 12:32:45;;;;;;;4.30;3.90;;;;;;;;;;4995690;28;20183;-57
2022/01/17 12:35:11;;;;;;;3.35;3.05;;;;;;;;;;4992811;28;20749;-57
2022/01/17 12:37:47;;;;;;;3.38;2.78;;;;;;;;;;5000655;28;20207;-57
2022/01/17 12:40:29;;;;;;;7.03;3.88;;;;;;;;;;4996057;28;20186;-57
2022/01/17 12:43:00;;;;;;;4.63;3.17;;;;;;;;;;4998917;28;20665;-57
2022/01/17 12:45:27;;;;;;;3.20;2.90;;;;;;;;;;4999324;28;20179;-57
2022/01/17 12:47:52;;;;;;;5.60;2.90;;;;;;;;;;5002119;28;20292;-57
2022/01/17 12:50:19;;;;;;;4.38;2.60;;;;;;;;;;4991731;28;20239;-56
2022/01/17 12:52:53;;;;;;;4.95;2.90;;;;;;;;;;4998250;28;20238;-57
2022/01/17 12:55:19;;;;;;;2.38;2.17;;;;;;;;;;4998049;28;20790;-57
2022/01/17 12:57:45;;;;;;;3.10;2.47;;;;;;;;;;4993256;28;20282;-57
2022/01/17 13:00:31;;;;;;;4.15;2.80;;;;;;;;;;4979128;28;20902;-57
2022/01/17 13:02:56;;;;;;;4.18;2.88;;;;;;;;;;5000573;28;20187;-57
2022/01/17 13:05:34;;;;;;;3.22;2.88;;;;;;;;;;4999326;28;20261;-57
2022/01/17 13:08:01;;;;;;;4.65;3.20;;;;;;;;;;4998708;28;20183;-58
2022/01/17 13:10:27;;;;;;;4.95;2.53;;;;;;;;;;5005774;28;20182;-58
2022/01/17 13:12:52;;;;;;;3.78;3.38;;;;;;;;;;4998966;28;20293;-58
2022/01/17 13:15:24;;;;;;;4.53;3.90;;;;;;;;;;4993967;28;20190;-57
2022/01/17 13:17:56;;;;;;;5.28;3.33;;;;;;;;;;4997145;28;20202;-58
2022/01/17 13:20:22;;;;;;;3.28;2.97;;;;;;;;;;4998108;28;20195;-57
2022/01/17 13:22:54;;;;;;;3.72;3.13;;;;;;;;;;4999347;28;20261;-58
2022/01/17 13:25:20;;;;;;;6.97;4.57;;;;;;;;;;5004328;28;20217;-58
2022/01/17 13:27:52;;;;;;;3.78;3.40;;;;;;;;;;5003499;28;20206;-57
2022/01/17 13:30:17;;;;;;;8.80;4.95;;;;;;;;;;5002607;28;20178;-57
2022/01/17 13:32:47;;;;;;;4.43;3.30;;;;;;;;;;4992092;28;20179;-58
2022/01/17 13:35:21;;;;;;;5.13;3.90;;;;;;;;;;4998142;28;20254;-57
2022/01/17 13:37:48;;;;;;;3.97;3.00;;;;;;;;;;5008211;28;20280;-57
2022/01/17 13:40:13;;;;;;;3.55;3.25;;;;;;;;;;5003657;28;20179;-57
2022/01/17 13:42:45;;;;;;;3.70;3.38;;;;;;;;;;4998386;28;20175;-58
2022/01/17 13:45:17;;;;;;;4.93;3.42;;;;;;;;;;5000653;28;20175;-57
2022/01/17 13:47:55;;;;;;;4.68;3.00;;;;;;;;;;4999142;28;20189;-57
2022/01/17 13:50:20;;;;;;;4.82;4.05;;;;;;;;;;5003566;28;20352;-58
2022/01/17 13:52:45;;;;;;;4.93;4.43;;;;;;;;;;5003151;28;20294;-58
2022/01/17 13:55:46;;;;;;;6.03;4.75;;;;;;;;;;5008357;28;20267;-57
2022/01/17 13:58:13;;;;;;;5.53;4.10;;;;;;;;;;4981443;28;20207;-58
2022/01/17 14:00:40;;;;;;;8.88;5.88;;;;;;;;;;4984662;28;20552;-58
2022/01/17 14:03:12;;;;;;;4.03;3.55;;;;;;;;;;4955706;28;20683;-58
2022/01/17 14:05:39;;;;;;;4.05;3.30;;;;;;;;;;4980852;28;20223;-57
2022/01/17 14:08:16;;;;;;;7.28;5.47;;;;;;;;;;5002532;28;20174;-57
2022/01/17 14:10:50;;;;;;;12.60;7.55;;;;;;;;;;4997934;28;20191;-57
2022/01/17 14:13:17;;;;;;;12.52;9.90;;;;;;;;;;5004779;28;20181;-57
2022/01/17 14:15:45;;;;;;;12.88;8.35;;;;;;;;;;5000935;28;20221;-57
2022/01/17 14:18:11;;;;;;;11.27;8.35;;;;;;;;;;5001443;28;20204;-58
2022/01/17 14:20:49;;;;;;;8.32;6.22;;;;;;;;;;4991811;28;20187;-58
2022/01/17 14:23:28;;;;;;;9.05;6.80;;;;;;;;;;4999169;28;20183;-58
2022/01/17 14:25:53;;;;;;;9.75;6.85;;;;;;;;;;4998367;28;20175;-58
2022/01/17 14:28:19;;;;;;;9.45;6.13;;;;;;;;;;4998973;28;20374;-58
2022/01/17 14:30:44;;;;;;;11.45;7.28;;;;;;;;;;4999297;28;20294;-58
2022/01/17 14:33:13;;;;;;;7.57;5.38;;;;;;;;;;4993245;28;20190;-58
2022/01/17 14:35:39;;;;;;;15.88;9.02;;;;;;;;;;4997548;28;20230;-58
2022/01/17 14:38:05;;;;;;;13.77;8.80;;;;;;;;;;5032673;28;20203;-57
2022/01/17 14:40:31;;;;;;;12.77;7.28;;;;;;;;;;5006083;28;20557;-57
2022/01/17 14:43:07;;;;;;;8.80;6.65;;;;;;;;;;4990392;28;20271;-57
2022/01/17 14:45:35;;;;;;;10.40;6.90;;;;;;;;;;4996651;28;20262;-57
2022/01/17 14:48:00;;;;;;;9.75;7.10;;;;;;;;;;4998994;28;20199;-57
2022/01/17 14:50:33;;;;;;;10.90;7.50;;;;;;;;;;4994268;28;20257;-57
2022/01/17 14:52:58;;;;;;;13.43;7.28;;;;;;;;;;5001333;28;20230;-57
2022/01/17 15:01:13;;;;;;;12.52;8.48;;;;;;;;;;5006117;28;20998;-58
2022/01/17 15:03:41;;;;;;;17.08;11.02;;;;;;;;;;5000797;28;20255;-58
2022/01/17 15:06:09;;;;;;;18.83;11.70;;;;;;;;;;4976696;28;20171;-58
2022/01/17 15:08:35;;;;;;;8.73;6.15;;;;;;;;;;4997972;28;20694;-58
2022/01/17 15:11:06;;;;;;;9.05;5.20;;;;;;;;;;4994846;28;20211;-58